TFM - Tactical Decision Aid
ID: Runway Winds: CIG/VIS Threshold:

KCHS - Charleston Intl, SC, US

Updated at: 1323 UTC 10 Aug 2022
Latest TAF at: 1120 UTC 10 Aug 2022

TAF Board

Time1256Z 10/14Z 10/15Z 10/16Z 10/17Z 10/18Z 10/19Z 10/20Z 10/21Z 10/22Z 10/23Z 11/00Z 11/01Z 11/02Z>>
Type OBS PRVL PRVL PRVL PRVL PRVL PRVL PRVL PRVL PRVL PRVL PRVL PRVL PRVL
VIS 10 >6 >6 >6 >6 >6 >6 >6 >6 >6 >6 >6 >6 >6
CIG -- -- -- -- -- 50 50 50 50 50 250 250 250 250
Cover SCT SCT SCT SCT SCT BKN BKN BKN BKN BKN BKN BKN BKN BKN
FltCat VFR VFR VFR VFR VFR VFR VFR VFR VFR VFR VFR VFR VFR VFR
WX -- -- -- -- -- VCSH VCSH VCSH VCSH VCSH -- -- -- --
WDir 260 240 240 240 240 210 210 210 210 210 210 210 210 210
WSpd 4 9 9 9 9 11 11 11 11 11 9 9 9 9
WGst -- -- -- -- -- -- -- -- -- -- -- -- -- --
WSHgt -- -- -- -- -- -- -- -- -- -- -- -- -- --
WSDir -- -- -- -- -- -- -- -- -- -- -- -- -- --
WSSpd -- -- -- -- -- -- -- -- -- -- -- -- -- --

TDA Impact Legend

  None Marginal Slight Moderate High
Visibility (sm) >5 3≤X≤5 2.5≤X<3 0.5≤X<2.5 <0.5
Ceiling (100 ft) >30 10≤X≤30 7≤X<10 2≤X<7 <2
Wind Speed (kt) <15 15≤X<25 25≤X<30 ≥30
Wind Gust (kt) <15 15≤X<25 25≤X<35 ≥35
Weather No Wx Reported VCTS -TS,-FZRA TS,FZRA +TS,+FZRA
TAF
KCHS 101120Z 1012/1112 24009KT P6SM FEW035 SCT250
  FM101800 21011KT P6SM VCSH BKN050
  FM102300 21009KT P6SM FEW060 SCT150 BKN250


METAR
KCHS 101256Z 26004KT 10SM FEW030 SCT250 28/22 A3021 RMK AO2 SLP228 T02780217
KCHS 101156Z 29005KT 10SM SCT250 26/22 A3019 RMK AO2 SLP223 T02610217 10261 20233 53011
KCHS 101056Z 25003KT 10SM FEW040 SCT250 24/23 A3018 RMK AO2 SLP219 T02440228
KCHS 100956Z 22003KT 10SM FEW030 FEW250 24/23 A3017 RMK AO2 LTG DSNT S SLP215 T02390228

Radar Display
Forecast Discussion